Connexion S'enregistrer

Connexion à votre compte

Identifiant
Mot de passe
Maintenir la connexion active sur ce site

Créer un compte

Pour valider ce formulaire, vous devez remplir tous les champs.
Nom
Identifiant
Mot de passe
Répétez le mot de passe
Adresse e-mail
Répétez l'adresse e-mail

Nous contacter

 Téléphone : +33 (0)4 79 54 41 81

Coordonnées détaillées et accès : cliquez ici

 
LFLB °C
    Ferienhaus Ostsee
[source: ADDS]
METAR
LFLB 142000Z AUTO 17022G32KT 140V240 9999 BKN062 OVC094 12/01 Q1003 TEMPO 18020G45KT =
TAF
TAF AMD LFLB 141916Z 1419/1518 18012KT 9999 BKN060 PROB40 TEMPO 1419/1503 18020G45KT TEMPO 1423/1505 4000 SHRA BKN014 SCT025TCU PROB40 TEMPO 1500/1504 1500 SHSN BKN009 SCT025CB BECMG 1512/1514 CAVOK =
SR / SS: 07:09 / 15:53 UTC (Lever/Coucher du soleil le 2017-12-14)
JSN Boot template designed by JoomlaShine.com